sensor_id;sensor_type;location;lat;lon;timestamp;pressure;altitude;pressure_sealevel;temperature;humidity
43804;BME280;29430;52.924;-2.388;2022-10-19T00:03:26;100343.09;;;9.23;98.86
43804;BME280;29430;52.924;-2.388;2022-10-19T00:08:17;100319.75;;;9.22;98.54
43804;BME280;29430;52.924;-2.388;2022-10-19T00:13:09;100293.53;;;9.22;98.54
43804;BME280;29430;52.924;-2.388;2022-10-19T00:18:01;100283.75;;;9.21;98.56
43804;BME280;29430;52.924;-2.388;2022-10-19T00:22:53;100280.22;;;9.21;99.14
43804;BME280;29430;52.924;-2.388;2022-10-19T00:27:44;100287.03;;;9.17;99.80
43804;BME280;29430;52.924;-2.388;2022-10-19T00:32:36;100287.03;;;9.17;100.00
43804;BME280;29430;52.924;-2.388;2022-10-19T00:37:28;100297.88;;;9.17;100.00
43804;BME280;29430;52.924;-2.388;2022-10-19T00:42:20;100283.50;;;9.16;100.00
43804;BME280;29430;52.924;-2.388;2022-10-19T00:47:12;100296.19;;;9.16;100.00
43804;BME280;29430;52.924;-2.388;2022-10-19T00:52:09;100280.78;;;9.16;100.00
43804;BME280;29430;52.924;-2.388;2022-10-19T00:57:02;100253.53;;;9.18;100.00
43804;BME280;29430;52.924;-2.388;2022-10-19T01:01:54;100251.22;;;9.14;100.00
43804;BME280;29430;52.924;-2.388;2022-10-19T01:06:46;100242.44;;;9.12;100.00
43804;BME280;29430;52.924;-2.388;2022-10-19T01:11:41;100253.25;;;9.12;100.00
43804;BME280;29430;52.924;-2.388;2022-10-19T01:16:49;100248.72;;;9.13;100.00
43804;BME280;29430;52.924;-2.388;2022-10-19T01:21:57;100234.31;;;9.12;100.00
43804;BME280;29430;52.924;-2.388;2022-10-19T01:27:10;100235.56;;;9.10;100.00
43804;BME280;29430;52.924;-2.388;2022-10-19T01:32:21;100231.81;;;9.11;100.00
43804;BME280;29430;52.924;-2.388;2022-10-19T01:42:44;100233.94;;;9.16;100.00
43804;BME280;29430;52.924;-2.388;2022-10-19T01:52:36;100213.75;;;9.18;100.00
43804;BME280;29430;52.924;-2.388;2022-10-19T01:57:32;100240.00;;;9.18;100.00
43804;BME280;29430;52.924;-2.388;2022-10-19T02:02:26;100221.06;;;9.18;100.00
43804;BME280;29430;52.924;-2.388;2022-10-19T02:07:20;100223.56;;;9.19;100.00
43804;BME280;29430;52.924;-2.388;2022-10-19T02:12:12;100207.31;;;9.19;100.00
43804;BME280;29430;52.924;-2.388;2022-10-19T02:17:07;100186.50;;;9.20;100.00
43804;BME280;29430;52.924;-2.388;2022-10-19T02:22:00;100207.31;;;9.19;100.00
43804;BME280;29430;52.924;-2.388;2022-10-19T02:26:53;100220.47;;;9.22;100.00
43804;BME280;29430;52.924;-2.388;2022-10-19T02:31:45;100197.97;;;9.22;100.00
43804;BME280;29430;52.924;-2.388;2022-10-19T02:36:37;100199.44;;;9.24;100.00
43804;BME280;29430;52.924;-2.388;2022-10-19T02:46:41;100178.03;;;9.29;99.76
43804;BME280;29430;52.924;-2.388;2022-10-19T02:51:39;100171.97;;;9.27;99.08
43804;BME280;29430;52.924;-2.388;2022-10-19T02:56:32;100164.06;;;9.26;99.41
43804;BME280;29430;52.924;-2.388;2022-10-19T03:01:24;100180.69;;;9.23;98.99
43804;BME280;29430;52.924;-2.388;2022-10-19T03:06:16;100171.56;;;9.24;99.00
43804;BME280;29430;52.924;-2.388;2022-10-19T03:11:08;100158.25;;;9.29;99.17
43804;BME280;29430;52.924;-2.388;2022-10-19T03:16:08;100140.78;;;9.31;98.44
43804;BME280;29430;52.924;-2.388;2022-10-19T03:21:02;100144.13;;;9.34;98.32
43804;BME280;29430;52.924;-2.388;2022-10-19T03:25:53;100146.44;;;9.37;97.89
43804;BME280;29430;52.924;-2.388;2022-10-19T03:30:45;100138.72;;;9.40;97.41
43804;BME280;29430;52.924;-2.388;2022-10-19T03:35:37;100142.31;;;9.41;97.44
43804;BME280;29430;52.924;-2.388;2022-10-19T03:40:28;100143.13;;;9.41;97.75
43804;BME280;29430;52.924;-2.388;2022-10-19T03:45:20;100138.34;;;9.43;97.54
43804;BME280;29430;52.924;-2.388;2022-10-19T03:50:12;100130.28;;;9.50;97.24
43804;BME280;29430;52.924;-2.388;2022-10-19T03:55:07;100115.66;;;9.51;96.90
43804;BME280;29430;52.924;-2.388;2022-10-19T03:59:59;100115.28;;;9.54;96.68
43804;BME280;29430;52.924;-2.388;2022-10-19T04:04:51;100091.56;;;9.56;96.64
43804;BME280;29430;52.924;-2.388;2022-10-19T04:09:42;100090.50;;;9.57;96.81
43804;BME280;29430;52.924;-2.388;2022-10-19T04:14:34;100075.09;;;9.58;96.65
43804;BME280;29430;52.924;-2.388;2022-10-19T04:19:46;100076.75;;;9.59;97.07
43804;BME280;29430;52.924;-2.388;2022-10-19T04:24:38;100060.50;;;9.59;96.68
43804;BME280;29430;52.924;-2.388;2022-10-19T04:29:29;100069.47;;;9.59;96.19
43804;BME280;29430;52.924;-2.388;2022-10-19T04:34:21;100058.25;;;9.62;96.30
43804;BME280;29430;52.924;-2.388;2022-10-19T04:39:13;100053.84;;;9.61;96.02
43804;BME280;29430;52.924;-2.388;2022-10-19T04:44:05;100034.06;;;9.61;96.16
43804;BME280;29430;52.924;-2.388;2022-10-19T04:48:57;100015.94;;;9.61;96.29
43804;BME280;29430;52.924;-2.388;2022-10-19T04:53:49;100043.44;;;9.58;95.95
43804;BME280;29430;52.924;-2.388;2022-10-19T04:58:44;100014.47;;;9.59;96.40
43804;BME280;29430;52.924;-2.388;2022-10-19T05:03:36;100046.97;;;9.59;96.50
43804;BME280;29430;52.924;-2.388;2022-10-19T05:08:28;100026.16;;;9.59;96.18
43804;BME280;29430;52.924;-2.388;2022-10-19T05:13:19;100015.31;;;9.59;96.24
43804;BME280;29430;52.924;-2.388;2022-10-19T05:18:11;100005.13;;;9.61;95.94
43804;BME280;29430;52.924;-2.388;2022-10-19T05:23:03;100015.13;;;9.61;95.71
43804;BME280;29430;52.924;-2.388;2022-10-19T05:27:57;100001.38;;;9.62;96.23
43804;BME280;29430;52.924;-2.388;2022-10-19T05:32:49;100008.84;;;9.60;95.84
43804;BME280;29430;52.924;-2.388;2022-10-19T05:37:41;100018.03;;;9.59;95.59
43804;BME280;29430;52.924;-2.388;2022-10-19T05:42:32;100028.41;;;9.56;95.79
43804;BME280;29430;52.924;-2.388;2022-10-19T05:47:24;100046.53;;;9.55;96.03
43804;BME280;29430;52.924;-2.388;2022-10-19T05:52:21;100026.75;;;9.55;96.00
43804;BME280;29430;52.924;-2.388;2022-10-19T05:57:12;100016.75;;;9.55;95.76
43804;BME280;29430;52.924;-2.388;2022-10-19T06:02:05;100017.78;;;9.54;95.72
43804;BME280;29430;52.924;-2.388;2022-10-19T06:06:56;99984.25;;;9.55;96.09
43804;BME280;29430;52.924;-2.388;2022-10-19T06:11:48;99990.50;;;9.56;96.17
43804;BME280;29430;52.924;-2.388;2022-10-19T06:16:40;99967.00;;;9.56;95.88
43804;BME280;29430;52.924;-2.388;2022-10-19T06:21:33;99973.44;;;9.55;96.04
43804;BME280;29430;52.924;-2.388;2022-10-19T06:26:26;99948.03;;;9.56;96.24
43804;BME280;29430;52.924;-2.388;2022-10-19T06:31:18;99938.84;;;9.57;96.43
43804;BME280;29430;52.924;-2.388;2022-10-19T06:36:16;99929.69;;;9.58;96.61
43804;BME280;29430;52.924;-2.388;2022-10-19T06:41:09;99926.78;;;9.60;96.32
43804;BME280;29430;52.924;-2.388;2022-10-19T06:46:06;99934.69;;;9.61;96.65
43804;BME280;29430;52.924;-2.388;2022-10-19T06:51:00;99938.03;;;9.63;96.82
43804;BME280;29430;52.924;-2.388;2022-10-19T06:55:52;99952.41;;;9.64;97.32
43804;BME280;29430;52.924;-2.388;2022-10-19T07:00:43;99940.53;;;9.65;97.28
43804;BME280;29430;52.924;-2.388;2022-10-19T07:05:35;99930.97;;;9.69;97.13
43804;BME280;29430;52.924;-2.388;2022-10-19T07:10:27;99933.25;;;9.72;97.07
43804;BME280;29430;52.924;-2.388;2022-10-19T07:15:19;99933.66;;;9.76;96.67
43804;BME280;29430;52.924;-2.388;2022-10-19T07:20:10;99918.25;;;9.76;96.59
43804;BME280;29430;52.924;-2.388;2022-10-19T07:25:02;99906.16;;;9.79;96.36
43804;BME280;29430;52.924;-2.388;2022-10-19T07:29:54;99904.31;;;9.79;96.70
43804;BME280;29430;52.924;-2.388;2022-10-19T07:34:46;99896.38;;;9.84;96.04
43804;BME280;29430;52.924;-2.388;2022-10-19T07:39:38;99905.13;;;9.86;96.56
43804;BME280;29430;52.924;-2.388;2022-10-19T07:44:29;99938.91;;;9.91;96.55
43804;BME280;29430;52.924;-2.388;2022-10-19T07:49:21;99909.69;;;9.93;96.46
43804;BME280;29430;52.924;-2.388;2022-10-19T07:54:13;99932.63;;;9.97;96.62
43804;BME280;29430;52.924;-2.388;2022-10-19T07:59:05;99930.53;;;9.99;96.46
43804;BME280;29430;52.924;-2.388;2022-10-19T08:03:57;99933.69;;;10.02;96.98
43804;BME280;29430;52.924;-2.388;2022-10-19T08:09:10;99931.19;;;10.08;96.95
43804;BME280;29430;52.924;-2.388;2022-10-19T08:14:21;99918.88;;;10.12;97.11
43804;BME280;29430;52.924;-2.388;2022-10-19T08:19:14;99902.81;;;10.17;96.82
43804;BME280;29430;52.924;-2.388;2022-10-19T08:24:06;99899.91;;;10.18;96.86
43804;BME280;29430;52.924;-2.388;2022-10-19T08:29:04;99867.13;;;10.27;96.17
43804;BME280;29430;52.924;-2.388;2022-10-19T08:33:56;99910.94;;;10.30;96.66
43804;BME280;29430;52.924;-2.388;2022-10-19T08:38:48;99899.28;;;10.36;96.73
43804;BME280;29430;52.924;-2.388;2022-10-19T08:43:52;99895.50;;;10.44;96.59
43804;BME280;29430;52.924;-2.388;2022-10-19T08:48:54;99914.88;;;10.54;96.41
43804;BME280;29430;52.924;-2.388;2022-10-19T08:53:54;99904.19;;;10.60;95.73
43804;BME280;29430;52.924;-2.388;2022-10-19T08:59:11;99902.53;;;10.65;95.67
43804;BME280;29430;52.924;-2.388;2022-10-19T09:04:34;99888.31;;;10.70;94.99
43804;BME280;29430;52.924;-2.388;2022-10-19T09:09:29;99894.56;;;10.70;95.40
43804;BME280;29430;52.924;-2.388;2022-10-19T09:14:31;99911.47;;;10.72;94.80
43804;BME280;29430;52.924;-2.388;2022-10-19T09:19:27;99875.56;;;10.70;94.55
43804;BME280;29430;52.924;-2.388;2022-10-19T09:29:29;99864.94;;;10.75;94.54
43804;BME280;29430;52.924;-2.388;2022-10-19T09:34:29;99866.38;;;10.78;93.52
43804;BME280;29430;52.924;-2.388;2022-10-19T09:39:22;99864.06;;;10.82;93.19
43804;BME280;29430;52.924;-2.388;2022-10-19T09:44:20;99841.28;;;10.83;93.46
43804;BME280;29430;52.924;-2.388;2022-10-19T09:49:13;99835.66;;;10.84;92.22
43804;BME280;29430;52.924;-2.388;2022-10-19T09:54:04;99853.78;;;10.90;92.79
43804;BME280;29430;52.924;-2.388;2022-10-19T09:58:57;99819.75;;;10.95;92.28
43804;BME280;29430;52.924;-2.388;2022-10-19T10:03:49;99827.19;;;11.06;92.54
43804;BME280;29430;52.924;-2.388;2022-10-19T10:08:52;99815.59;;;11.24;91.22
43804;BME280;29430;52.924;-2.388;2022-10-19T10:13:52;99798.97;;;11.39;90.32
43804;BME280;29430;52.924;-2.388;2022-10-19T10:18:54;99801.13;;;11.55;89.53
43804;BME280;29430;52.924;-2.388;2022-10-19T10:24:05;99791.09;;;11.81;88.73
43804;BME280;29430;52.924;-2.388;2022-10-19T10:29:27;99792.59;;;12.21;87.20
43804;BME280;29430;52.924;-2.388;2022-10-19T10:34:42;99824.22;;;12.52;84.97
43804;BME280;29430;52.924;-2.388;2022-10-19T10:39:41;99806.81;;;12.71;83.51
43804;BME280;29430;52.924;-2.388;2022-10-19T10:44:34;99807.44;;;13.04;81.74
43804;BME280;29430;52.924;-2.388;2022-10-19T10:49:36;99788.47;;;13.39;79.95
43804;BME280;29430;52.924;-2.388;2022-10-19T10:54:32;99772.03;;;13.82;77.71
43804;BME280;29430;52.924;-2.388;2022-10-19T10:59:32;99762.75;;;14.06;74.75
43804;BME280;29430;52.924;-2.388;2022-10-19T11:04:30;99749.69;;;14.20;74.77
43804;BME280;29430;52.924;-2.388;2022-10-19T11:09:37;99765.88;;;14.39;73.32
43804;BME280;29430;52.924;-2.388;2022-10-19T11:19:35;99725.81;;;14.56;69.72
43804;BME280;29430;52.924;-2.388;2022-10-19T11:24:58;99720.31;;;14.39;68.74
43804;BME280;29430;52.924;-2.388;2022-10-19T11:40:11;99664.59;;;14.81;69.30
43804;BME280;29430;52.924;-2.388;2022-10-19T12:00:17;99640.41;;;14.27;69.27
43804;BME280;29430;52.924;-2.388;2022-10-19T12:16:18;99572.53;;;14.13;69.44
43804;BME280;29430;52.924;-2.388;2022-10-19T12:21:29;99589.22;;;14.17;69.91
43804;BME280;29430;52.924;-2.388;2022-10-19T12:26:22;99583.94;;;14.10;69.02
43804;BME280;29430;52.924;-2.388;2022-10-19T12:31:16;99556.78;;;14.04;70.04
43804;BME280;29430;52.924;-2.388;2022-10-19T12:41:27;99517.84;;;13.91;70.87
43804;BME280;29430;52.924;-2.388;2022-10-19T12:51:21;99563.22;;;13.69;72.08
43804;BME280;29430;52.924;-2.388;2022-10-19T12:56:23;99484.66;;;13.66;72.65
43804;BME280;29430;52.924;-2.388;2022-10-19T13:01:19;99475.06;;;13.63;72.98
43804;BME280;29430;52.924;-2.388;2022-10-19T13:06:15;99477.72;;;13.58;73.49
43804;BME280;29430;52.924;-2.388;2022-10-19T13:11:13;99464.16;;;13.63;73.53
43804;BME280;29430;52.924;-2.388;2022-10-19T13:26:43;99447.97;;;13.56;73.55
43804;BME280;29430;52.924;-2.388;2022-10-19T13:31:35;99415.41;;;13.50;73.34
43804;BME280;29430;52.924;-2.388;2022-10-19T13:36:27;99426.22;;;13.45;73.24
43804;BME280;29430;52.924;-2.388;2022-10-19T13:41:27;99411.19;;;13.42;73.41
43804;BME280;29430;52.924;-2.388;2022-10-19T14:07:30;99391.97;;;13.20;75.49
43804;BME280;29430;52.924;-2.388;2022-10-19T14:12:26;99377.28;;;13.21;75.26
43804;BME280;29430;52.924;-2.388;2022-10-19T14:17:24;99378.91;;;13.22;74.86
43804;BME280;29430;52.924;-2.388;2022-10-19T14:22:32;99378.09;;;13.21;73.91
43804;BME280;29430;52.924;-2.388;2022-10-19T14:27:24;99353.00;;;13.19;74.76
43804;BME280;29430;52.924;-2.388;2022-10-19T14:32:19;99348.38;;;13.20;74.24
43804;BME280;29430;52.924;-2.388;2022-10-19T14:37:16;99355.50;;;13.21;74.05
43804;BME280;29430;52.924;-2.388;2022-10-19T14:42:09;99371.59;;;13.22;74.45
43804;BME280;29430;52.924;-2.388;2022-10-19T14:47:08;99350.94;;;13.26;74.55
43804;BME280;29430;52.924;-2.388;2022-10-19T14:52:07;99360.66;;;13.34;74.50
43804;BME280;29430;52.924;-2.388;2022-10-19T14:57:00;99353.47;;;13.45;74.21
43804;BME280;29430;52.924;-2.388;2022-10-19T15:01:57;99329.31;;;13.49;73.16
43804;BME280;29430;52.924;-2.388;2022-10-19T15:06:49;99322.94;;;13.43;72.80
43804;BME280;29430;52.924;-2.388;2022-10-19T15:11:44;99309.09;;;13.33;73.37
43804;BME280;29430;52.924;-2.388;2022-10-19T15:16:49;99316.50;;;13.20;74.36
43804;BME280;29430;52.924;-2.388;2022-10-19T15:21:41;99291.59;;;13.12;74.49
43804;BME280;29430;52.924;-2.388;2022-10-19T15:26:33;99282.50;;;13.06;75.15
43804;BME280;29430;52.924;-2.388;2022-10-19T15:31:27;99272.66;;;13.05;75.51
43804;BME280;29430;52.924;-2.388;2022-10-19T15:36:21;99265.59;;;13.04;74.76
43804;BME280;29430;52.924;-2.388;2022-10-19T15:41:25;99265.47;;;12.99;75.18
43804;BME280;29430;52.924;-2.388;2022-10-19T15:46:25;99238.25;;;12.99;75.24
43804;BME280;29430;52.924;-2.388;2022-10-19T15:56:13;99250.88;;;12.88;74.75
43804;BME280;29430;52.924;-2.388;2022-10-19T16:01:15;99244.28;;;12.84;74.82
43804;BME280;29430;52.924;-2.388;2022-10-19T16:06:07;99245.00;;;12.79;74.89
43804;BME280;29430;52.924;-2.388;2022-10-19T16:10:59;99215.44;;;12.71;75.58
43804;BME280;29430;52.924;-2.388;2022-10-19T16:15:52;99203.56;;;12.60;75.71
43804;BME280;29430;52.924;-2.388;2022-10-19T16:21:01;99199.00;;;12.49;76.38
43804;BME280;29430;52.924;-2.388;2022-10-19T16:25:53;99188.75;;;12.39;77.30
43804;BME280;29430;52.924;-2.388;2022-10-19T16:30:51;99158.66;;;12.29;77.98
43804;BME280;29430;52.924;-2.388;2022-10-19T16:35:43;99148.66;;;12.17;78.35
43804;BME280;29430;52.924;-2.388;2022-10-19T16:40:34;99159.88;;;12.09;79.09
43804;BME280;29430;52.924;-2.388;2022-10-19T16:45:27;99161.34;;;12.00;80.01
43804;BME280;29430;52.924;-2.388;2022-10-19T16:50:18;99132.63;;;11.92;80.40
43804;BME280;29430;52.924;-2.388;2022-10-19T16:55:10;99102.06;;;11.85;80.81
43804;BME280;29430;52.924;-2.388;2022-10-19T17:00:04;99104.06;;;11.78;81.19
43804;BME280;29430;52.924;-2.388;2022-10-19T17:04:56;99114.25;;;11.71;82.02
43804;BME280;29430;52.924;-2.388;2022-10-19T17:09:48;99104.69;;;11.68;82.23
43804;BME280;29430;52.924;-2.388;2022-10-19T17:14:45;99103.75;;;11.62;82.54
43804;BME280;29430;52.924;-2.388;2022-10-19T17:19:37;99080.59;;;11.60;82.49
43804;BME280;29430;52.924;-2.388;2022-10-19T17:24:29;99041.66;;;11.54;82.99
43804;BME280;29430;52.924;-2.388;2022-10-19T17:29:21;99041.31;;;11.51;83.69
43804;BME280;29430;52.924;-2.388;2022-10-19T17:34:14;99033.88;;;11.46;83.78
43804;BME280;29430;52.924;-2.388;2022-10-19T17:39:08;99069.91;;;11.41;84.09
43804;BME280;29430;52.924;-2.388;2022-10-19T17:44:02;99061.09;;;11.34;84.29
43804;BME280;29430;52.924;-2.388;2022-10-19T17:48:56;99056.94;;;11.32;84.70
43804;BME280;29430;52.924;-2.388;2022-10-19T17:53:48;99003.38;;;11.27;84.89
43804;BME280;29430;52.924;-2.388;2022-10-19T17:58:41;99074.66;;;11.22;85.71
43804;BME280;29430;52.924;-2.388;2022-10-19T18:03:33;99022.75;;;11.19;85.25
43804;BME280;29430;52.924;-2.388;2022-10-19T18:08:28;99004.81;;;11.18;85.87
43804;BME280;29430;52.924;-2.388;2022-10-19T18:13:20;99024.28;;;11.15;86.01
43804;BME280;29430;52.924;-2.388;2022-10-19T18:18:12;98985.09;;;11.10;85.70
43804;BME280;29430;52.924;-2.388;2022-10-19T18:23:03;99000.81;;;11.08;85.81
43804;BME280;29430;52.924;-2.388;2022-10-19T18:27:55;98983.72;;;11.08;86.05
43804;BME280;29430;52.924;-2.388;2022-10-19T18:32:50;99002.94;;;11.06;85.92
43804;BME280;29430;52.924;-2.388;2022-10-19T18:37:42;98972.50;;;11.04;85.88
43804;BME280;29430;52.924;-2.388;2022-10-19T18:42:34;98982.78;;;11.02;86.88
43804;BME280;29430;52.924;-2.388;2022-10-19T18:47:26;98995.16;;;10.98;86.55
43804;BME280;29430;52.924;-2.388;2022-10-19T18:52:19;99002.72;;;10.96;86.71
43804;BME280;29430;52.924;-2.388;2022-10-19T18:57:11;98985.88;;;10.94;87.57
43804;BME280;29430;52.924;-2.388;2022-10-19T19:02:03;98986.09;;;10.92;87.81
43804;BME280;29430;52.924;-2.388;2022-10-19T19:06:57;98977.13;;;10.92;87.88
43804;BME280;29430;52.924;-2.388;2022-10-19T19:11:49;98976.53;;;10.90;88.26
43804;BME280;29430;52.924;-2.388;2022-10-19T19:16:44;99005.81;;;10.88;89.02
43804;BME280;29430;52.924;-2.388;2022-10-19T19:21:38;98975.59;;;10.84;88.38
43804;BME280;29430;52.924;-2.388;2022-10-19T19:26:36;98991.63;;;10.86;89.00
43804;BME280;29430;52.924;-2.388;2022-10-19T19:31:29;98991.06;;;10.84;89.33
43804;BME280;29430;52.924;-2.388;2022-10-19T19:36:21;99009.00;;;10.85;90.19
43804;BME280;29430;52.924;-2.388;2022-10-19T19:41:14;99073.00;;;10.86;90.83
43804;BME280;29430;52.924;-2.388;2022-10-19T19:46:12;99085.53;;;10.87;90.61
43804;BME280;29430;52.924;-2.388;2022-10-19T19:51:15;99085.28;;;10.88;90.83
43804;BME280;29430;52.924;-2.388;2022-10-19T19:56:09;99083.16;;;10.90;91.00
43804;BME280;29430;52.924;-2.388;2022-10-19T20:01:13;99015.09;;;10.92;91.33
43804;BME280;29430;52.924;-2.388;2022-10-19T20:06:06;98992.56;;;10.91;91.85
43804;BME280;29430;52.924;-2.388;2022-10-19T20:11:03;98999.06;;;10.90;91.88
43804;BME280;29430;52.924;-2.388;2022-10-19T20:15:56;98966.25;;;10.92;92.13
43804;BME280;29430;52.924;-2.388;2022-10-19T20:20:49;98941.03;;;10.91;93.04
43804;BME280;29430;52.924;-2.388;2022-10-19T20:25:41;98922.28;;;10.90;92.93
43804;BME280;29430;52.924;-2.388;2022-10-19T20:30:32;98928.19;;;10.87;94.04
43804;BME280;29430;52.924;-2.388;2022-10-19T20:35:25;98881.81;;;10.88;93.92
43804;BME280;29430;52.924;-2.388;2022-10-19T20:40:17;98870.50;;;10.91;94.08
43804;BME280;29430;52.924;-2.388;2022-10-19T20:45:10;98843.34;;;10.91;94.70
43804;BME280;29430;52.924;-2.388;2022-10-19T20:50:03;98883.00;;;10.92;95.04
43804;BME280;29430;52.924;-2.388;2022-10-19T20:54:55;98852.56;;;10.90;95.00
43804;BME280;29430;52.924;-2.388;2022-10-19T20:59:47;98841.47;;;10.92;95.75
43804;BME280;29430;52.924;-2.388;2022-10-19T21:04:39;98871.31;;;10.92;96.30
43804;BME280;29430;52.924;-2.388;2022-10-19T21:09:31;98889.00;;;10.95;96.11
43804;BME280;29430;52.924;-2.388;2022-10-19T21:14:25;98898.56;;;10.97;96.26
43804;BME280;29430;52.924;-2.388;2022-10-19T21:19:20;98911.03;;;10.98;96.21
43804;BME280;29430;52.924;-2.388;2022-10-19T21:24:15;98893.47;;;11.01;96.69
43804;BME280;29430;52.924;-2.388;2022-10-19T21:29:09;98917.66;;;11.02;96.99
43804;BME280;29430;52.924;-2.388;2022-10-19T21:34:05;98907.38;;;11.04;96.52
43804;BME280;29430;52.924;-2.388;2022-10-19T21:38:58;98928.25;;;11.04;96.87
43804;BME280;29430;52.924;-2.388;2022-10-19T21:43:50;98904.41;;;11.06;97.22
43804;BME280;29430;52.924;-2.388;2022-10-19T21:48:42;98918.81;;;11.06;97.39
43804;BME280;29430;52.924;-2.388;2022-10-19T21:53:34;98916.91;;;11.07;97.20
43804;BME280;29430;52.924;-2.388;2022-10-19T21:58:26;98903.59;;;11.05;97.77
43804;BME280;29430;52.924;-2.388;2022-10-19T22:03:17;98872.94;;;11.05;98.23
43804;BME280;29430;52.924;-2.388;2022-10-19T22:08:09;98893.56;;;11.06;98.49
43804;BME280;29430;52.924;-2.388;2022-10-19T22:13:01;98867.03;;;11.08;98.02
43804;BME280;29430;52.924;-2.388;2022-10-19T22:17:52;98882.22;;;11.09;98.16
43804;BME280;29430;52.924;-2.388;2022-10-19T22:22:44;98856.97;;;11.08;98.90
43804;BME280;29430;52.924;-2.388;2022-10-19T22:27:36;98848.34;;;11.11;98.63
43804;BME280;29430;52.924;-2.388;2022-10-19T22:32:28;98854.59;;;11.12;98.71
43804;BME280;29430;52.924;-2.388;2022-10-19T22:37:19;98863.34;;;11.14;99.31
43804;BME280;29430;52.924;-2.388;2022-10-19T22:42:11;98841.88;;;11.13;99.29
43804;BME280;29430;52.924;-2.388;2022-10-19T22:47:03;98847.88;;;11.15;99.56
43804;BME280;29430;52.924;-2.388;2022-10-19T22:51:54;98838.66;;;11.16;99.56
43804;BME280;29430;52.924;-2.388;2022-10-19T22:56:46;98827.81;;;11.16;99.46
43804;BME280;29430;52.924;-2.388;2022-10-19T23:01:38;98841.94;;;11.18;99.40
43804;BME280;29430;52.924;-2.388;2022-10-19T23:06:29;98830.84;;;11.19;99.75
43804;BME280;29430;52.924;-2.388;2022-10-19T23:11:21;98820.56;;;11.21;100.00
43804;BME280;29430;52.924;-2.388;2022-10-19T23:16:13;98823.03;;;11.23;100.00
43804;BME280;29430;52.924;-2.388;2022-10-19T23:21:09;98820.06;;;11.24;100.00
43804;BME280;29430;52.924;-2.388;2022-10-19T23:30:57;98810.94;;;11.31;100.00
43804;BME280;29430;52.924;-2.388;2022-10-19T23:35:49;98809.09;;;11.31;100.00
43804;BME280;29430;52.924;-2.388;2022-10-19T23:40:43;98778.13;;;11.32;100.00
43804;BME280;29430;52.924;-2.388;2022-10-19T23:45:36;98777.16;;;11.38;100.00
43804;BME280;29430;52.924;-2.388;2022-10-19T23:50:28;98778.56;;;11.41;100.00
43804;BME280;29430;52.924;-2.388;2022-10-19T23:55:20;98741.09;;;11.43;100.00
